createdAt,value
2023-05-15T09:49:39.922Z,94756.78
2023-05-15T09:52:10.814Z,94754.25
2023-05-15T09:54:37.946Z,94763.63
2023-05-15T09:57:12.483Z,94756.16
2023-05-15T09:59:48.868Z,94752.63
2023-05-15T10:02:31.196Z,94744.38
2023-05-15T10:04:59.108Z,94748.41
2023-05-15T10:07:32.877Z,94741.34
2023-05-15T10:10:01.211Z,94743.97
2023-05-15T10:12:31.143Z,94750.44
2023-05-15T10:14:59.497Z,94752.16
2023-05-15T10:17:28.184Z,94749.84
2023-05-15T10:19:59.278Z,94752.56
2023-05-15T10:22:30.593Z,94749.22
2023-05-15T10:25:12.649Z,94746.63
2023-05-15T10:27:40.765Z,94748.88
2023-05-15T10:30:09.669Z,94745.00
2023-05-15T10:32:36.656Z,94746.50
2023-05-15T10:35:03.828Z,94743.59
2023-05-15T10:37:30.827Z,94740.44
2023-05-15T10:39:57.950Z,94734.31
2023-05-15T10:42:26.345Z,94730.72
2023-05-15T10:45:00.038Z,94734.09
2023-05-15T10:47:27.441Z,94734.31
2023-05-15T10:49:54.156Z,94732.69
2023-05-15T10:52:20.974Z,94728.88
2023-05-15T10:54:47.562Z,94727.38
2023-05-15T10:57:17.246Z,94717.06
2023-05-15T10:59:44.271Z,94715.94
2023-05-15T11:02:24.232Z,94710.03
2023-05-15T11:04:57.761Z,94704.56
2023-05-15T11:07:24.551Z,94702.91
2023-05-15T11:09:52.904Z,94692.69
2023-05-15T11:12:19.792Z,94692.44
2023-05-15T11:14:52.338Z,94699.41
2023-05-15T11:17:18.927Z,94696.84
2023-05-15T11:19:51.741Z,94687.56
2023-05-15T11:22:30.402Z,94686.66
2023-05-15T11:25:09.031Z,94693.00
2023-05-15T11:27:40.453Z,94693.13
2023-05-15T11:30:25.065Z,94684.34
2023-05-15T11:32:58.835Z,94675.50
2023-05-15T11:35:46.990Z,94675.88
2023-05-15T11:38:20.032Z,94683.50
2023-05-15T11:40:52.436Z,94685.81
2023-05-15T11:43:29.823Z,94696.56
2023-05-15T11:46:07.787Z,94706.19
2023-05-15T11:48:53.237Z,94704.34
2023-05-15T11:51:27.453Z,94704.41
2023-05-15T11:53:55.731Z,94701.91
2023-05-15T11:56:24.844Z,94710.56
2023-05-15T11:58:55.497Z,94707.03
2023-05-15T12:01:22.133Z,94695.84
2023-05-15T12:03:49.695Z,94710.63
2023-05-15T12:06:16.908Z,94708.97
2023-05-15T12:08:43.930Z,94711.09
2023-05-15T12:11:10.914Z,94715.44
2023-05-15T12:13:37.546Z,94711.78
2023-05-15T12:16:04.863Z,94720.25
2023-05-15T12:18:32.626Z,94706.91
2023-05-15T12:20:59.667Z,94711.94
2023-05-15T12:23:28.230Z,94724.63
2023-05-15T12:25:58.990Z,94750.50
2023-05-15T12:28:26.647Z,94768.03
2023-05-15T12:30:54.144Z,94765.97
2023-05-15T12:33:20.885Z,94776.13
2023-05-15T12:35:56.238Z,94775.94
2023-05-15T12:38:24.924Z,94756.22
2023-05-15T12:40:56.880Z,94762.91
2023-05-15T12:43:25.439Z,94767.59
2023-05-15T12:45:53.399Z,94771.25
2023-05-15T12:48:20.243Z,94770.69
2023-05-15T12:50:46.955Z,94774.78
2023-05-15T12:53:15.728Z,94778.63
2023-05-15T12:55:44.456Z,94785.56
2023-05-15T12:58:12.708Z,94783.13
2023-05-15T13:00:43.159Z,94785.16
2023-05-15T13:03:11.660Z,94773.97
2023-05-15T13:05:39.589Z,94766.19
2023-05-15T13:08:09.254Z,94758.44
2023-05-15T13:10:37.843Z,94753.47
2023-05-15T13:13:04.561Z,94746.88
2023-05-15T13:15:37.591Z,94742.09
2023-05-15T13:18:09.652Z,94746.91
2023-05-15T13:20:39.552Z,94757.84
2023-05-15T13:26:06.504Z,94764.75
2023-05-15T13:28:34.205Z,94766.53
2023-05-15T13:31:01.144Z,94769.53
2023-05-15T13:33:28.745Z,94764.78
2023-05-15T13:35:57.225Z,94771.59
2023-05-15T13:38:27.870Z,94780.13
2023-05-15T13:40:54.405Z,94788.59
2023-05-15T13:43:21.023Z,94783.38
2023-05-15T13:45:47.562Z,94782.97
2023-05-15T13:48:14.160Z,94781.38
2023-05-15T13:50:40.889Z,94774.84
2023-05-15T13:53:07.504Z,94774.78
2023-05-15T13:55:34.078Z,94772.41
2023-05-15T13:58:01.455Z,94769.16
2023-05-15T14:00:28.920Z,94764.88
2023-05-15T14:02:55.494Z,94768.34
2023-05-15T14:05:22.074Z,94768.34
2023-05-15T14:07:48.596Z,94760.63
2023-05-15T14:10:15.114Z,94758.63
2023-05-15T14:12:43.343Z,94761.06
2023-05-15T14:15:11.782Z,94754.09
2023-05-15T14:17:38.394Z,94749.81
2023-05-15T14:20:05.396Z,94767.31
2023-05-15T14:22:32.148Z,94758.06
2023-05-15T14:24:58.718Z,94769.28
2023-05-15T14:27:25.265Z,94766.66
2023-05-15T14:29:51.898Z,94764.44
2023-05-15T14:32:18.648Z,94772.41
2023-05-15T14:34:45.245Z,94782.06
2023-05-15T14:37:11.999Z,94801.44
2023-05-15T14:39:38.763Z,94815.41
2023-05-15T14:42:06.279Z,94826.44
2023-05-15T14:44:33.792Z,94822.56
2023-05-15T14:47:13.469Z,94825.03
2023-05-15T14:49:40.607Z,94825.25
2023-05-15T14:52:09.567Z,94819.53
2023-05-15T14:54:36.486Z,94830.72
2023-05-15T14:57:03.756Z,94827.69
2023-05-15T14:59:30.589Z,94826.25
2023-05-15T15:01:57.570Z,94831.97
2023-05-15T15:04:24.254Z,94827.69
2023-05-15T15:06:50.904Z,94826.25
2023-05-15T15:09:19.517Z,94831.97
2023-05-15T15:11:47.451Z,94828.91
2023-05-15T15:14:14.104Z,94822.38
2023-05-15T15:16:40.842Z,94819.91
2023-05-15T15:19:07.408Z,94827.88
2023-05-15T15:21:34.559Z,94831.31
2023-05-15T15:24:01.152Z,94829.75
2023-05-15T15:26:27.687Z,94823.19
2023-05-15T15:28:55.201Z,94821.97
2023-05-15T15:31:21.750Z,94821.13
2023-05-15T15:33:48.488Z,94814.38
2023-05-15T15:36:14.999Z,94816.22
2023-05-15T15:38:43.625Z,94808.63
2023-05-15T15:41:10.261Z,94808.03
2023-05-15T15:43:36.806Z,94804.19
2023-05-15T15:46:03.377Z,94798.31
2023-05-15T15:48:29.984Z,94807.06
2023-05-15T15:50:57.036Z,94793.78
2023-05-15T15:53:23.686Z,94794.78
2023-05-15T15:55:50.437Z,94786.72
2023-05-15T15:58:17.016Z,94793.41
2023-05-15T16:00:43.670Z,94793.16
2023-05-15T16:03:10.847Z,94790.28
2023-05-15T16:05:37.426Z,94788.63
2023-05-15T16:08:04.095Z,94787.66
2023-05-15T16:10:30.806Z,94777.66
2023-05-15T16:12:57.671Z,94780.34
2023-05-15T16:15:24.388Z,94780.09
2023-05-15T16:17:54.657Z,94786.72
2023-05-15T16:20:21.836Z,94786.66
2023-05-15T16:22:48.357Z,94786.06
2023-05-15T16:25:14.887Z,94781.91
2023-05-15T16:27:41.413Z,94788.00
2023-05-15T16:30:09.253Z,94790.59
2023-05-15T16:32:36.118Z,94777.75
2023-05-15T16:35:03.013Z,94780.81
2023-05-15T16:37:29.598Z,94774.34
2023-05-15T16:39:56.237Z,94777.31
2023-05-15T16:42:23.126Z,94780.72
2023-05-15T16:44:49.638Z,94788.69
2023-05-15T16:47:16.147Z,94798.41
2023-05-15T16:49:44.380Z,94797.94
2023-05-15T16:52:12.040Z,94806.25
2023-05-15T16:54:41.449Z,94802.25
2023-05-15T16:57:08.030Z,94804.69
2023-05-15T16:59:34.705Z,94798.38
2023-05-15T17:02:01.360Z,94796.09
2023-05-15T17:04:29.077Z,94809.19
2023-05-15T17:06:57.023Z,94808.66
2023-05-15T17:09:23.554Z,94807.09
2023-05-15T17:11:50.075Z,94808.56
2023-05-15T17:14:16.732Z,94814.06
2023-05-15T17:16:43.499Z,94811.00
2023-05-15T17:19:10.188Z,94809.66
2023-05-15T17:21:37.393Z,94821.00
2023-05-15T17:24:04.040Z,94817.34
2023-05-15T17:26:30.569Z,94821.19
2023-05-15T17:28:57.101Z,94826.25
2023-05-15T17:31:23.667Z,94820.53
2023-05-15T17:33:50.210Z,94830.31
2023-05-15T17:36:16.745Z,94822.53
2023-05-15T17:38:43.300Z,94827.25
2023-05-15T17:41:09.790Z,94830.38
2023-05-15T17:43:36.370Z,94830.38
2023-05-15T17:46:03.544Z,94829.16
2023-05-15T17:48:30.093Z,94833.03
2023-05-15T17:50:56.669Z,94833.03
2023-05-15T17:53:24.337Z,94833.28
2023-05-15T17:55:50.900Z,94841.22
2023-05-15T17:58:17.467Z,94838.50
2023-05-15T18:00:44.022Z,94842.00
2023-05-15T18:03:10.621Z,94847.94
2023-05-15T18:05:37.305Z,94840.59
2023-05-15T18:08:04.242Z,94855.91
2023-05-15T18:10:30.859Z,94855.97
2023-05-15T18:12:58.474Z,94858.81
2023-05-15T18:15:25.509Z,94855.00
2023-05-15T18:17:52.179Z,94862.94
2023-05-15T18:20:18.814Z,94863.34
2023-05-15T18:22:45.953Z,94864.00
2023-05-15T18:25:12.572Z,94853.59
2023-05-15T18:27:39.205Z,94856.06
2023-05-15T18:30:06.580Z,94854.81
2023-05-15T18:32:33.435Z,94854.88
2023-05-15T18:35:00.026Z,94862.16
2023-05-15T18:37:27.034Z,94866.25
2023-05-15T18:39:56.639Z,94867.06
2023-05-15T18:42:25.208Z,94869.53
2023-05-15T18:44:52.072Z,94865.84
2023-05-15T18:47:18.647Z,94875.44
2023-05-15T18:49:45.375Z,94882.41
2023-05-15T18:52:12.367Z,94873.22
2023-05-15T18:54:41.201Z,94867.13
2023-05-15T18:57:08.248Z,94871.63
2023-05-15T18:59:34.959Z,94874.09
2023-05-15T19:02:01.622Z,94877.94
2023-05-15T19:04:28.175Z,94879.56
2023-05-15T19:06:54.746Z,94871.03
2023-05-15T19:09:21.304Z,94874.91
2023-05-15T19:11:49.561Z,94882.66
2023-05-15T19:14:17.784Z,94888.78
2023-05-15T19:16:47.581Z,94883.50
2023-05-15T19:19:14.282Z,94876.97
2023-05-15T19:21:40.883Z,94886.56
2023-05-15T19:24:07.728Z,94882.69
2023-05-15T19:26:34.392Z,94888.78
2023-05-15T19:29:00.932Z,94884.31
2023-05-15T19:31:31.972Z,94889.56
2023-05-15T19:33:59.711Z,94892.66
2023-05-15T19:36:26.455Z,94894.06
2023-05-15T19:38:53.062Z,94892.25
2023-05-15T19:41:19.690Z,94900.59
2023-05-15T19:43:47.004Z,94896.50
2023-05-15T19:46:13.881Z,94890.59
2023-05-15T19:48:40.706Z,94891.81
2023-05-15T19:51:07.342Z,94891.41
2023-05-15T19:53:34.193Z,94888.78
2023-05-15T19:56:00.814Z,94892.63
2023-05-15T19:58:27.410Z,94886.94
2023-05-15T20:00:54.467Z,94887.75
2023-05-15T20:03:22.017Z,94894.88
2023-05-15T20:05:48.753Z,94889.75
2023-05-15T20:08:17.035Z,94897.88
2023-05-15T20:10:44.448Z,94888.94
2023-05-15T20:13:11.570Z,94892.00
2023-05-15T20:15:40.028Z,94893.44
2023-05-15T20:18:06.998Z,94890.34
2023-05-15T20:20:33.626Z,94892.97
2023-05-15T20:23:00.173Z,94891.78
2023-05-15T20:25:27.002Z,94896.63
2023-05-15T20:27:56.890Z,94900.47
2023-05-15T20:30:24.095Z,94895.78
2023-05-15T20:32:51.426Z,94901.13
2023-05-15T20:35:18.024Z,94899.00
2023-05-15T20:37:45.310Z,94895.53
2023-05-15T20:40:12.882Z,94894.78
2023-05-15T20:42:40.022Z,94900.44
2023-05-15T20:45:08.573Z,94898.84
2023-05-15T20:47:35.835Z,94897.59
2023-05-15T20:50:02.502Z,94899.78
2023-05-15T20:52:29.199Z,94899.22
2023-05-15T20:54:55.774Z,94897.94
2023-05-15T20:57:22.346Z,94898.97
2023-05-15T20:59:48.892Z,94898.59
2023-05-15T21:02:15.957Z,94897.41
2023-05-15T21:04:42.776Z,94896.38
2023-05-15T21:07:09.803Z,94900.06
2023-05-15T21:09:36.330Z,94895.19
2023-05-15T21:12:04.023Z,94902.50
2023-05-15T21:14:30.781Z,94897.41
2023-05-15T21:16:57.679Z,94898.84
2023-05-15T21:19:24.389Z,94897.75
2023-05-15T21:21:51.033Z,94900.06
2023-05-15T21:24:17.778Z,94894.34
2023-05-15T21:26:44.427Z,94884.78
2023-05-15T21:29:11.143Z,94900.03
2023-05-15T21:31:37.796Z,94897.94
2023-05-15T21:34:04.347Z,94896.81
2023-05-15T21:36:31.296Z,94899.66
2023-05-15T21:38:57.845Z,94893.75
2023-05-15T21:41:25.888Z,94893.97
2023-05-15T21:43:52.457Z,94894.97
2023-05-15T21:46:19.204Z,94900.47
2023-05-15T21:48:46.391Z,94904.94
2023-05-15T21:51:12.924Z,94896.59
2023-05-15T21:53:39.519Z,94901.72
2023-05-15T21:56:06.505Z,94902.56
2023-05-15T21:58:33.042Z,94907.63
2023-05-15T22:00:59.658Z,94898.47
2023-05-15T22:03:26.273Z,94898.88
2023-05-15T22:05:53.138Z,94891.53
2023-05-15T22:08:19.959Z,94903.75
2023-05-15T22:10:46.537Z,94900.09
2023-05-15T22:13:13.114Z,94908.84
2023-05-15T22:15:39.653Z,94912.31
2023-05-15T22:18:06.436Z,94911.91
2023-05-15T22:20:33.105Z,94910.28
2023-05-15T22:22:59.795Z,94911.31
2023-05-15T22:25:26.408Z,94915.81
2023-05-15T22:27:52.919Z,94912.94
2023-05-15T22:30:19.689Z,94917.41
2023-05-15T22:32:46.372Z,94920.66
2023-05-15T22:35:13.264Z,94914.78
2023-05-15T22:37:41.946Z,94911.94
2023-05-15T22:40:10.463Z,94909.91
2023-05-15T22:42:37.309Z,94911.13
2023-05-15T22:45:05.877Z,94913.38
2023-05-15T22:47:32.700Z,94916.00
2023-05-15T22:49:59.386Z,94913.56
2023-05-15T22:52:26.276Z,94910.91
2023-05-15T22:55:11.322Z,94911.94
2023-05-15T22:57:43.560Z,94906.03
2023-05-15T23:00:10.681Z,94904.81
2023-05-15T23:02:38.275Z,94908.28
2023-05-15T23:05:05.178Z,94908.28
2023-05-15T23:08:25.186Z,94908.28
2023-05-15T23:10:56.097Z,94911.75
2023-05-15T23:13:22.933Z,94913.56
2023-05-15T23:15:49.478Z,94901.53
2023-05-15T23:18:16.949Z,94907.03
2023-05-15T23:20:43.557Z,94903.41
2023-05-15T23:23:10.117Z,94901.34
2023-05-15T23:25:36.858Z,94899.94
2023-05-15T23:28:03.836Z,94896.66
2023-05-15T23:30:30.689Z,94898.72
2023-05-15T23:32:57.253Z,94903.78
2023-05-15T23:35:23.888Z,94895.03
2023-05-15T23:37:50.469Z,94898.31
2023-05-15T23:40:17.135Z,94893.03
2023-05-15T23:42:43.664Z,94892.03
2023-05-15T23:45:10.942Z,94888.75
2023-05-15T23:47:37.597Z,94885.28
2023-05-15T23:50:04.713Z,94886.72
2023-05-15T23:52:31.534Z,94881.81
2023-05-15T23:54:58.084Z,94880.03
2023-05-15T23:57:24.623Z,94882.47
2023-05-15T23:59:51.295Z,94881.00
